Terminal Aerodrome Forecast
Issued by NWS Charleston, WV

Current Version | Previous Version | Text Only | Print | Product List | Glossary Off
Versions: 1 2 3 4 5 6 7 8 9 10 11 12 13 14 15 16 17 18 19 20 21 22 23 24

000
FTUS41 KRLX 201100
TAFPKB
TAF
KPKB 201134Z 2012/2112 17005KT P6SM FEW060
     FM210300 00000KT P6SM FEW050
     FM210600 20006KT P6SM SCT040
     FM210900 19004KT P6SM BKN035=

USA.gov is the U.S. government's official web portal to all federal, state and local government web resources and services.